Time;durP1;ratioP1;P1;durP2;ratioP2;P2;SDS_P1;SDS_P2;PMS_P1;PMS_P2;Temp;Humidity;BMP_temperature;BMP_pressure;BME280_temperature;BME280_humidity;BME280_pressure;Samples;Min_cycle;Max_cycle;Signal;HPM_P1;HPM_P2
2022/07/25 00:00:05;0.00;0.00;0.62;0.00;0.00;0.62;;;;;26.00;1.00;;;;;;2254826;61;1146;-83
2022/07/25 00:02:31;0.00;0.00;0.62;0.00;0.00;0.62;;;;;26.00;1.00;;;;;;2254872;61;1429;-83
2022/07/25 00:04:58;286491.00;0.95;494.70;37143.00;0.12;64.95;;;;;26.10;1.00;;;;;;2254198;61;1164;-82
2022/07/25 00:07:27;81003.00;0.27;140.77;0.00;0.00;0.62;;;;;25.90;1.00;;;;;;2254729;61;1122;-81
2022/07/25 00:09:54;0.00;0.00;0.62;0.00;0.00;0.62;;;;;25.90;1.00;;;;;;2254208;61;1923;-83
2022/07/25 00:12:21;33856.00;0.11;59.26;0.00;0.00;0.62;;;;;26.00;1.00;;;;;;2254714;61;1250;-83
2022/07/25 00:14:48;0.00;0.00;0.62;0.00;0.00;0.62;;;;;26.10;1.00;;;;;;2254408;61;1160;-83
2022/07/25 00:17:15;13882.00;0.05;24.67;0.00;0.00;0.62;;;;;25.90;1.00;;;;;;2254858;61;1105;-82
2022/07/25 00:19:42;0.00;0.00;0.62;0.00;0.00;0.62;;;;;26.00;1.00;;;;;;2255135;61;1110;-82
2022/07/25 00:22:09;0.00;0.00;0.62;0.00;0.00;0.62;;;;;25.90;1.00;;;;;;2254793;61;1263;-83
2022/07/25 00:24:37;45980.00;0.15;80.23;0.00;0.00;0.62;;;;;25.80;1.00;;;;;;2254899;61;1116;-81
2022/07/25 00:27:04;17977.00;0.06;31.77;0.00;0.00;0.62;;;;;25.80;1.00;;;;;;2257220;61;1165;-81
2022/07/25 00:29:31;236969.00;0.79;409.54;0.00;0.00;0.62;;;;;25.70;1.00;;;;;;2258253;61;2000;-83
2022/07/25 00:31:58;0.00;0.00;0.62;0.00;0.00;0.62;;;;;25.80;1.00;;;;;;2254197;61;1286;-82
2022/07/25 00:34:25;12777.00;0.04;22.76;0.00;0.00;0.62;;;;;25.90;1.00;;;;;;2254073;61;1100;-82
2022/07/25 00:36:52;253723.00;0.85;438.35;82860.00;0.28;143.98;;;;;25.80;1.00;;;;;;2255027;61;1148;-83
2022/07/25 00:39:19;0.00;0.00;0.62;0.00;0.00;0.62;;;;;25.80;1.00;;;;;;2255355;61;1152;-83
2022/07/25 00:41:47;228790.00;0.76;395.47;54982.00;0.18;95.80;;;;;25.80;1.00;;;;;;2255537;61;1431;-83
2022/07/25 00:44:23;0.00;0.00;0.62;0.00;0.00;0.62;;;;;25.80;1.00;;;;;;2255703;61;1149;-83
2022/07/25 00:46:50;172421.00;0.57;298.44;67482.00;0.22;117.41;;;;;26.00;1.00;;;;;;2255464;61;1183;-83
2022/07/25 00:49:17;183987.00;0.61;318.36;71105.00;0.24;123.67;;;;;26.00;1.00;;;;;;2257242;61;1995;-82
2022/07/25 00:51:44;182135.00;0.61;315.17;66589.00;0.22;115.87;;;;;26.00;1.00;;;;;;2259866;61;1302;-82
2022/07/25 00:54:11;192466.00;0.64;332.95;61924.00;0.21;107.80;;;;;25.80;1.00;;;;;;2256539;61;1172;-82
2022/07/25 00:56:38;165734.00;0.55;286.92;62389.00;0.21;108.61;;;;;25.40;1.00;;;;;;2255159;61;1085;-83
2022/07/25 00:59:06;166820.00;0.56;288.79;59941.00;0.20;104.37;;;;;25.40;1.00;;;;;;2254335;61;1096;-81
2022/07/25 01:01:35;177327.00;0.59;306.89;71553.00;0.24;124.44;;;;;25.30;1.00;;;;;;2254641;61;1170;-84
2022/07/25 01:04:02;240155.00;0.80;415.02;43735.00;0.15;76.35;;;;;25.40;1.00;;;;;;2255547;61;1724;-82
2022/07/25 01:06:29;166272.00;0.55;287.84;56104.00;0.19;97.74;;;;;25.50;1.00;;;;;;2255912;61;1144;-83
2022/07/25 01:08:57;255443.00;0.85;441.31;64892.00;0.22;112.93;;;;;25.30;1.00;;;;;;2256346;61;1157;-83
2022/07/25 01:11:24;167842.00;0.56;290.55;65168.00;0.22;113.41;;;;;25.40;1.00;;;;;;2255650;61;1938;-82
2022/07/25 01:13:51;276108.00;0.92;476.85;63852.00;0.21;111.14;;;;;25.40;1.00;;;;;;2255511;61;1275;-82
2022/07/25 01:16:19;172153.00;0.57;297.98;75694.00;0.25;131.60;;;;;25.30;1.00;;;;;;2255312;61;1061;-82
2022/07/25 01:18:46;221337.00;0.74;382.64;60108.00;0.20;104.66;;;;;25.30;1.00;;;;;;2255441;61;1086;-82
2022/07/25 01:21:14;172548.00;0.58;298.66;72869.00;0.24;126.72;;;;;25.50;1.00;;;;;;2254593;61;1118;-81
2022/07/25 01:23:41;313862.00;1.05;541.75;110390.00;0.37;191.50;;;;;25.50;1.00;;;;;;2256610;61;1260;-82
2022/07/25 01:26:08;171041.00;0.57;296.06;68734.00;0.23;119.57;;;;;25.30;1.00;;;;;;2260211;61;1063;-83
2022/07/25 01:28:35;394267.00;1.31;679.95;105946.00;0.35;183.83;;;;;25.20;1.00;;;;;;2260013;61;1087;-82
2022/07/25 01:31:02;183785.00;0.61;318.01;70121.00;0.23;121.97;;;;;25.30;1.00;;;;;;2256138;61;2006;-81
2022/07/25 01:33:30;166077.00;0.55;287.51;68162.00;0.23;118.58;;;;;25.40;1.00;;;;;;2255992;61;1365;-81
2022/07/25 01:35:57;205241.00;0.68;354.94;64282.00;0.21;111.88;;;;;25.30;1.00;;;;;;2257335;61;1223;-82
2022/07/25 01:38:25;234078.00;0.78;404.56;63686.00;0.21;110.85;;;;;25.20;1.00;;;;;;2256921;61;1110;-82
2022/07/25 01:40:52;251666.00;0.84;434.82;70298.00;0.23;122.28;;;;;25.50;1.00;;;;;;2254246;61;1167;-82
2022/07/25 01:43:19;244071.00;0.81;421.75;66509.00;0.22;115.73;;;;;25.50;1.00;;;;;;2254418;61;1350;-81
2022/07/25 01:45:46;171951.00;0.57;297.63;57049.00;0.19;99.38;;;;;25.30;1.00;;;;;;2259134;61;1110;-82
2022/07/25 01:48:13;177804.00;0.59;307.71;67242.00;0.22;116.99;;;;;25.30;1.00;;;;;;2256609;61;1110;-82
2022/07/25 01:50:40;165977.00;0.55;287.34;66961.00;0.22;116.51;;;;;25.40;1.00;;;;;;2255564;61;1997;-84
2022/07/25 01:53:06;295597.00;0.99;510.35;61028.00;0.20;106.25;;;;;25.50;1.00;;;;;;2254440;61;1281;-85
2022/07/25 01:55:35;211207.00;0.70;365.21;57821.00;0.19;100.71;;;;;25.70;1.00;;;;;;2254595;61;1205;-82
2022/07/25 01:58:01;308934.00;1.03;533.28;73341.00;0.24;127.53;;;;;25.70;1.00;;;;;;2254612;61;1103;-83
2022/07/25 02:00:28;318736.00;1.06;550.13;88347.00;0.29;153.45;;;;;25.80;1.00;;;;;;2255515;61;1154;-83
2022/07/25 02:05:36;303178.00;1.01;523.38;60869.00;0.20;105.98;;;;;25.40;1.00;;;;;;2254549;61;1221;-83
2022/07/25 02:08:03;176231.00;0.59;305.00;64481.00;0.21;112.22;;;;;25.30;1.00;;;;;;2254586;61;1124;-82
2022/07/25 02:10:30;215146.00;0.72;371.99;65866.00;0.22;114.62;;;;;25.40;1.00;;;;;;2254605;61;1926;-81
2022/07/25 02:12:58;171278.00;0.57;296.47;61897.00;0.21;107.76;;;;;25.20;1.00;;;;;;2254272;61;1416;-82
2022/07/25 02:15:25;156997.00;0.52;271.87;71933.00;0.24;125.10;;;;;25.10;1.00;;;;;;2254709;61;1152;-81
2022/07/25 02:17:52;226508.00;0.76;391.54;63390.00;0.21;110.34;;;;;25.20;1.00;;;;;;2255079;61;1227;-82
2022/07/25 02:20:20;218930.00;0.73;378.50;62789.00;0.21;109.30;;;;;25.20;1.00;;;;;;2254679;61;1090;-82
2022/07/25 02:22:47;165035.00;0.55;285.71;58902.00;0.20;102.58;;;;;25.20;1.00;;;;;;2254641;61;1357;-81
2022/07/25 02:25:14;216892.00;0.72;375.00;67691.00;0.23;117.77;;;;;25.30;1.00;;;;;;2254117;61;1211;-80
2022/07/25 02:27:40;171641.00;0.57;297.09;68496.00;0.23;119.16;;;;;25.40;1.00;;;;;;2253841;61;1080;-83
2022/07/25 02:30:10;437004.00;1.46;753.43;134706.00;0.45;233.44;;;;;25.10;1.00;;;;;;2254240;61;2022;-83
2022/07/25 02:32:36;175196.00;0.58;303.22;79735.00;0.27;138.58;;;;;25.20;1.00;;;;;;2254507;61;1308;-82
2022/07/25 02:35:04;294067.00;0.98;507.72;67549.00;0.23;117.52;;;;;25.20;1.00;;;;;;2254916;61;1063;-81
2022/07/25 02:37:31;283105.00;0.94;488.88;52928.00;0.18;92.25;;;;;25.20;1.00;;;;;;2255427;61;1240;-81
2022/07/25 02:39:57;393562.00;1.31;678.74;65898.00;0.22;114.67;;;;;25.20;1.00;;;;;;2256242;61;1115;-85
2022/07/25 02:42:25;313785.00;1.05;541.62;66844.00;0.22;116.31;;;;;25.00;1.00;;;;;;2255679;61;1286;-82
2022/07/25 02:44:52;255377.00;0.85;441.20;64220.00;0.21;111.77;;;;;24.90;1.00;;;;;;2255474;61;1179;-80
2022/07/25 02:47:20;252902.00;0.84;436.94;66569.00;0.22;115.83;;;;;24.90;1.00;;;;;;2255712;61;1220;-81
2022/07/25 02:49:47;443520.00;1.48;764.64;123141.00;0.41;213.50;;;;;24.90;1.00;;;;;;2254580;61;1295;-82
2022/07/25 02:52:14;261227.00;0.87;451.26;54953.00;0.18;95.75;;;;;25.00;1.00;;;;;;2255577;61;2041;-82
2022/07/25 02:54:41;263940.00;0.88;455.92;57486.00;0.19;100.13;;;;;25.00;1.00;;;;;;2256073;61;1144;-83
2022/07/25 02:57:08;248791.00;0.83;429.87;69672.00;0.23;121.19;;;;;25.20;1.00;;;;;;2255060;61;1240;-82
2022/07/25 02:59:35;248266.00;0.83;428.97;71012.00;0.24;123.51;;;;;25.20;1.00;;;;;;2255175;61;1136;-83
2022/07/25 03:02:01;160971.00;0.54;278.71;66609.00;0.22;115.90;;;;;25.10;1.00;;;;;;2257758;61;1343;-81
2022/07/25 03:04:30;191932.00;0.64;332.03;65117.00;0.22;113.32;;;;;25.20;1.00;;;;;;2259118;61;1141;-84
2022/07/25 03:06:57;286419.00;0.95;494.57;58025.00;0.19;101.06;;;;;25.30;1.00;;;;;;2256410;61;1152;-82
2022/07/25 03:09:24;209857.00;0.70;362.89;71536.00;0.24;124.41;;;;;25.30;1.00;;;;;;2255846;61;1159;-82
2022/07/25 03:11:51;247423.00;0.82;427.52;60548.00;0.20;105.42;;;;;25.30;1.00;;;;;;2255557;61;2005;-81
2022/07/25 03:14:18;190117.00;0.63;328.91;73938.00;0.25;128.56;;;;;25.40;1.00;;;;;;2258528;61;1236;-80
2022/07/25 03:16:45;163473.00;0.54;283.02;63076.00;0.21;109.79;;;;;25.20;1.00;;;;;;2259701;61;1181;-82
2022/07/25 03:19:13;274778.00;0.92;474.56;61154.00;0.20;106.47;;;;;25.30;1.00;;;;;;2255112;61;1095;-82
2022/07/25 03:21:41;195292.00;0.65;337.82;60832.00;0.20;105.92;;;;;25.20;1.00;;;;;;2254765;61;1234;-82
2022/07/25 03:24:08;189560.00;0.63;327.95;67900.00;0.23;118.13;;;;;25.10;1.00;;;;;;2255468;61;1236;-83
2022/07/25 03:26:35;236063.00;0.79;407.98;71699.00;0.24;124.70;;;;;25.00;1.00;;;;;;2255227;61;1180;-82
2022/07/25 03:29:02;178044.00;0.59;308.12;69802.00;0.23;121.42;;;;;24.70;1.00;;;;;;2254745;61;1133;-81
2022/07/25 03:31:28;171827.00;0.57;297.41;65806.00;0.22;114.51;;;;;24.60;1.00;;;;;;2254669;61;2020;-81
2022/07/25 03:33:55;227216.00;0.76;392.76;70098.00;0.23;121.93;;;;;24.70;1.00;;;;;;2254254;61;1305;-81
2022/07/25 03:36:22;195902.00;0.65;338.87;66460.00;0.22;115.64;;;;;24.60;1.00;;;;;;2254654;61;1140;-82
2022/07/25 03:38:50;162057.00;0.54;280.58;67907.00;0.23;118.14;;;;;24.50;1.00;;;;;;2254770;61;1172;-81
2022/07/25 03:41:17;195828.00;0.65;338.74;69540.00;0.23;120.97;;;;;24.50;1.00;;;;;;2254496;61;1232;-81
2022/07/25 03:43:44;169920.00;0.57;294.13;61324.00;0.20;106.77;;;;;24.40;1.00;;;;;;2254472;61;1248;-81
2022/07/25 03:46:11;271928.00;0.91;469.66;67835.00;0.23;118.02;;;;;24.30;1.00;;;;;;2254645;61;1255;-81
2022/07/25 03:48:38;296750.00;0.99;512.33;80966.00;0.27;140.71;;;;;24.10;1.00;;;;;;2254610;61;1165;-82
2022/07/25 03:51:05;191033.00;0.64;330.49;70927.00;0.24;123.36;;;;;24.30;1.00;;;;;;2254450;61;1993;-81
2022/07/25 03:53:31;336442.00;1.12;580.56;119341.00;0.40;206.95;;;;;24.20;1.00;;;;;;2253934;61;1281;-81
2022/07/25 03:56:00;158299.00;0.53;274.11;57947.00;0.19;100.93;;;;;24.50;1.00;;;;;;2254412;61;1095;-82
2022/07/25 03:58:26;198229.00;0.66;342.88;68059.00;0.23;118.41;;;;;24.50;1.00;;;;;;2254146;61;1144;-81
2022/07/25 04:00:53;222060.00;0.74;383.89;69443.00;0.23;120.80;;;;;24.70;1.00;;;;;;2255318;61;1180;-81
2022/07/25 04:03:20;450386.00;1.50;776.45;77679.00;0.26;135.03;;;;;24.50;1.00;;;;;;2257185;61;1316;-81
2022/07/25 04:05:47;272489.00;0.91;470.62;72592.00;0.24;126.24;;;;;24.50;1.00;;;;;;2257520;61;1179;-82
2022/07/25 04:08:14;262526.00;0.88;453.49;62439.00;0.21;108.69;;;;;24.50;1.00;;;;;;2253970;61;1128;-81
2022/07/25 04:10:41;324690.00;1.08;560.36;93082.00;0.31;161.63;;;;;24.70;1.00;;;;;;2254218;61;2002;-82
2022/07/25 04:13:09;207363.00;0.69;358.60;65061.00;0.22;113.22;;;;;24.50;1.00;;;;;;2254157;61;1268;-81
2022/07/25 04:15:36;167007.00;0.56;289.11;71176.00;0.24;123.79;;;;;24.10;1.00;;;;;;2254352;61;2153;-82
2022/07/25 04:18:03;157496.00;0.52;272.72;59946.00;0.20;104.38;;;;;24.20;1.00;;;;;;2255106;61;1156;-82
2022/07/25 04:20:30;162241.00;0.54;280.90;58405.00;0.19;101.72;;;;;24.20;1.00;;;;;;2259839;61;1092;-81
2022/07/25 04:22:57;190709.00;0.64;329.93;72084.00;0.24;125.36;;;;;24.30;1.00;;;;;;2254402;61;1251;-82
2022/07/25 04:25:24;266163.00;0.89;459.75;75910.00;0.25;131.97;;;;;24.30;1.00;;;;;;2253902;61;1140;-82
2022/07/25 04:27:50;186205.00;0.62;322.17;70065.00;0.23;121.87;;;;;24.50;1.00;;;;;;2254250;61;1106;-81
2022/07/25 04:30:19;170375.00;0.57;294.91;62774.00;0.21;109.27;;;;;24.60;1.00;;;;;;2254423;61;1220;-82
2022/07/25 04:32:46;211586.00;0.71;365.86;67598.00;0.23;117.61;;;;;24.50;1.00;;;;;;2254080;61;1938;-81
2022/07/25 04:35:13;372003.00;1.24;641.68;86729.00;0.29;150.66;;;;;24.70;1.00;;;;;;2254034;61;1085;-82
2022/07/25 04:37:39;190339.00;0.63;329.29;62462.00;0.21;108.73;;;;;24.60;1.00;;;;;;2254445;61;1152;-82
2022/07/25 04:40:07;71449.00;0.24;124.26;0.00;0.00;0.62;;;;;24.50;1.00;;;;;;2254458;61;1160;-82
2022/07/25 04:42:34;0.00;0.00;0.62;67223.00;0.22;116.96;;;;;24.50;1.00;;;;;;2254589;61;1284;-81
2022/07/25 04:45:01;117087208.00;390.29;65021024.00;52743.00;0.18;91.93;;;;;24.50;1.00;;;;;;2254351;61;1068;-82
2022/07/25 04:47:29;39060.00;0.13;68.26;0.00;0.00;0.62;;;;;24.70;1.00;;;;;;2254636;61;1264;-83
2022/07/25 04:49:56;188885.00;0.63;326.79;0.00;0.00;0.62;;;;;24.60;1.00;;;;;;2254663;61;1203;-83
2022/07/25 04:52:23;116874840.00;389.58;64667556.00;116815928.00;389.39;64569728.00;;;;;24.60;1.00;;;;;;2254173;61;2024;-82
2022/07/25 04:54:50;0.00;0.00;0.62;0.00;0.00;0.62;;;;;24.80;1.00;;;;;;2253951;61;1140;-81
2022/07/25 04:57:17;0.00;0.00;0.62;0.00;0.00;0.62;;;;;24.90;1.00;;;;;;2260028;61;1160;-81
2022/07/25 04:59:44;0.00;0.00;0.62;0.00;0.00;0.62;;;;;24.90;1.00;;;;;;2260218;61;1146;-81
2022/07/25 05:02:11;117774.00;0.39;204.24;51140.00;0.17;89.16;;;;;24.90;1.00;;;;;;2255661;61;1382;-83
2022/07/25 05:04:39;25028.00;0.08;43.98;0.00;0.00;0.62;;;;;25.00;1.00;;;;;;2254566;61;1180;-83
2022/07/25 05:07:06;54831.00;0.18;95.54;57855.00;0.19;100.77;;;;;24.90;1.00;;;;;;2254616;61;1143;-82
2022/07/25 05:09:32;117001600.00;390.01;64878392.00;0.00;0.00;0.62;;;;;25.00;1.00;;;;;;2255012;61;1094;-82
2022/07/25 05:11:59;0.00;0.00;0.62;0.00;0.00;0.62;;;;;25.10;1.00;;;;;;2254887;61;1923;-82
2022/07/25 05:14:26;0.00;0.00;0.62;0.00;0.00;0.62;;;;;25.30;1.00;;;;;;2254471;61;1197;-82
2022/07/25 05:16:53;224780.00;0.75;388.57;8915.00;0.03;16.07;;;;;25.40;1.00;;;;;;2254293;61;2260;-81
2022/07/25 05:19:20;0.00;0.00;0.62;0.00;0.00;0.62;;;;;25.40;1.00;;;;;;2254211;61;1163;-82
2022/07/25 05:21:48;0.00;0.00;0.62;0.00;0.00;0.62;;;;;25.50;1.00;;;;;;2254597;61;1319;-80
2022/07/25 05:24:15;0.00;0.00;0.62;0.00;0.00;0.62;;;;;25.40;1.00;;;;;;2254878;61;1179;-81
2022/07/25 05:26:42;69408.00;0.23;120.74;0.00;0.00;0.62;;;;;25.50;1.00;;;;;;2255534;61;1152;-82
2022/07/25 05:29:09;10765.00;0.04;19.27;0.00;0.00;0.62;;;;;25.50;1.00;;;;;;2255790;61;1180;-82
2022/07/25 05:31:36;7572.00;0.03;13.74;0.00;0.00;0.62;;;;;25.40;1.00;;;;;;2255365;61;1924;-82
2022/07/25 05:34:03;476335.00;1.59;821.09;207598.00;0.69;359.00;;;;;25.30;1.00;;;;;;2256767;61;1360;-82
2022/07/25 05:36:30;0.00;0.00;0.62;0.00;0.00;0.62;;;;;25.10;1.00;;;;;;2260244;61;1130;-82
2022/07/25 05:38:58;102110.00;0.34;177.21;36714.00;0.12;64.20;;;;;25.30;1.00;;;;;;2260049;61;1108;-82
2022/07/25 05:41:25;0.00;0.00;0.62;0.00;0.00;0.62;;;;;25.40;1.00;;;;;;2258369;61;1113;-82
2022/07/25 05:43:51;142283.00;0.47;246.51;12025.00;0.04;21.46;;;;;25.60;1.00;;;;;;2254724;61;1401;-82
2022/07/25 05:46:18;0.00;0.00;0.62;0.00;0.00;0.62;;;;;26.10;1.00;;;;;;2254444;61;1184;-84
2022/07/25 05:48:45;0.00;0.00;0.62;0.00;0.00;0.62;;;;;27.80;1.00;;;;;;2253824;61;1130;-84
2022/07/25 05:51:12;0.00;0.00;0.62;0.00;0.00;0.62;;;;;29.70;1.00;;;;;;2255830;61;2020;-82
2022/07/25 05:53:39;0.00;0.00;0.62;0.00;0.00;0.62;;;;;31.20;1.00;;;;;;2255840;61;1369;-81
2022/07/25 05:56:09;14858.00;0.05;26.36;0.00;0.00;0.62;;;;;32.40;1.00;;;;;;2257372;61;1143;-81
2022/07/25 05:58:39;0.00;0.00;0.62;0.00;0.00;0.62;;;;;33.60;1.00;;;;;;2257540;61;1081;-81
2022/07/25 06:01:06;0.00;0.00;0.62;0.00;0.00;0.62;;;;;34.70;1.00;;;;;;2257744;61;1072;-83
2022/07/25 06:03:34;0.00;0.00;0.62;0.00;0.00;0.62;;;;;35.30;1.00;;;;;;2256964;61;1347;-82
2022/07/25 06:06:01;0.00;0.00;0.62;0.00;0.00;0.62;;;;;36.10;1.00;;;;;;2256986;61;1180;-82
2022/07/25 06:08:29;216762.00;0.72;374.77;68398.00;0.23;118.99;;;;;36.40;1.00;;;;;;2257725;61;1139;-83
2022/07/25 06:10:57;0.00;0.00;0.62;0.00;0.00;0.62;;;;;36.50;1.00;;;;;;2257860;61;1095;-82
2022/07/25 06:13:26;295672.00;0.99;510.48;87000.00;0.29;151.13;;;;;36.90;1.00;;;;;;2257032;61;1347;-80
2022/07/25 06:15:53;754.00;0.00;1.93;0.00;0.00;0.62;;;;;37.20;1.00;;;;;;2257757;61;1132;-82
2022/07/25 06:18:19;0.00;0.00;0.62;0.00;0.00;0.62;;;;;37.60;1.00;;;;;;2257174;61;1152;-81
2022/07/25 06:20:47;205130.00;0.68;354.75;42085.00;0.14;73.50;;;;;37.70;1.00;;;;;;2257282;61;1875;-82
2022/07/25 06:23:14;61294.00;0.20;106.71;0.00;0.00;0.62;;;;;38.00;1.00;;;;;;2257516;61;1286;-82
2022/07/25 06:25:41;29272.00;0.10;51.32;0.00;0.00;0.62;;;;;38.70;1.00;;;;;;2256917;61;1108;-83
2022/07/25 06:28:08;74477.00;0.25;129.50;0.00;0.00;0.62;;;;;39.00;1.00;;;;;;2257147;61;1018;-82
2022/07/25 06:30:36;20051.00;0.07;35.36;0.00;0.00;0.62;;;;;39.60;1.00;;;;;;2256643;61;1200;-82
2022/07/25 06:33:03;0.00;0.00;0.62;0.00;0.00;0.62;;;;;39.60;1.00;;;;;;2256951;61;1940;-82
2022/07/25 06:35:30;0.00;0.00;0.62;0.00;0.00;0.62;;;;;39.70;1.00;;;;;;2257652;61;1230;-85
2022/07/25 06:37:57;0.00;0.00;0.62;0.00;0.00;0.62;;;;;39.80;1.00;;;;;;2260069;61;1244;-84
2022/07/25 06:40:24;167209.00;0.56;289.46;0.00;0.00;0.62;;;;;40.50;1.00;;;;;;2257353;61;1164;-85
2022/07/25 06:42:51;0.00;0.00;0.62;0.00;0.00;0.62;;;;;40.30;1.00;;;;;;2257625;61;1369;-85
2022/07/25 06:45:18;0.00;0.00;0.62;0.00;0.00;0.62;;;;;40.20;1.00;;;;;;2257328;61;1132;-84
2022/07/25 06:47:46;0.00;0.00;0.62;0.00;0.00;0.62;;;;;40.50;1.00;;;;;;2257518;61;1147;-83
2022/07/25 06:50:17;27774.00;0.09;48.73;0.00;0.00;0.62;;;;;40.70;1.00;;;;;;2259266;61;1121;-83
2022/07/25 06:52:44;157318.00;0.52;272.42;37494.00;0.12;65.55;;;;;40.70;1.00;;;;;;2259378;61;2000;-85
2022/07/25 06:55:12;313550.00;1.05;541.21;61861.00;0.21;107.69;;;;;40.90;1.00;;;;;;2258021;61;1203;-85
2022/07/25 06:57:40;175616.00;0.59;303.94;49403.00;0.16;86.15;;;;;41.10;1.00;;;;;;2257109;61;1122;-84
2022/07/25 07:00:10;166583.00;0.56;288.38;51815.00;0.17;90.32;;;;;41.90;1.00;;;;;;2257797;61;1558;-85
2022/07/25 07:02:54;172616.00;0.58;298.77;41774.00;0.14;72.96;;;;;41.30;1.00;;;;;;2258920;61;1361;-84
2022/07/25 07:05:22;342342.00;1.14;590.70;54740.00;0.18;95.38;;;;;41.20;1.00;;;;;;2259914;61;1164;-84
2022/07/25 07:07:49;170992.00;0.57;295.98;48587.00;0.16;84.74;;;;;42.20;1.00;;;;;;2259509;61;1149;-85
2022/07/25 07:10:17;280639.00;0.94;484.64;50871.00;0.17;88.69;;;;;42.50;1.00;;;;;;2259660;61;1150;-85
2022/07/25 07:12:44;364267.00;1.21;628.38;51658.00;0.17;90.05;;;;;42.80;1.00;;;;;;2259981;61;1989;-86
2022/07/25 07:15:11;185106.00;0.62;320.28;51274.00;0.17;89.39;;;;;42.50;1.00;;;;;;2260112;61;1055;-85
2022/07/25 07:17:38;234266.00;0.78;404.89;44299.00;0.15;77.33;;;;;42.50;1.00;;;;;;2260066;61;1114;-84
2022/07/25 07:20:09;197233.00;0.66;341.16;50176.00;0.17;87.49;;;;;42.50;1.00;;;;;;2259673;61;1128;-83
2022/07/25 07:22:44;280065.00;0.93;483.65;49293.00;0.16;85.96;;;;;42.20;1.00;;;;;;2260066;61;1424;-84
2022/07/25 07:25:13;81238.00;0.27;141.18;0.00;0.00;0.62;;;;;42.50;1.00;;;;;;2259709;61;1121;-86
2022/07/25 07:27:40;247135.00;0.82;427.02;30262.00;0.10;53.04;;;;;42.90;1.00;;;;;;2260071;61;1143;-84
2022/07/25 07:30:08;30128.00;0.10;52.80;0.00;0.00;0.62;;;;;42.80;1.00;;;;;;2259411;61;1028;-86
2022/07/25 07:32:35;106209.00;0.35;184.29;0.00;0.00;0.62;;;;;42.90;1.00;;;;;;2259463;61;2018;-84
2022/07/25 07:35:02;90616.00;0.30;157.37;0.00;0.00;0.62;;;;;42.90;1.00;;;;;;2259683;61;1051;-84
2022/07/25 07:37:30;185057.00;0.62;320.20;48035.00;0.16;83.79;;;;;42.60;1.00;;;;;;2259326;61;1180;-84
2022/07/25 07:39:57;86424.00;0.29;150.13;0.00;0.00;0.62;;;;;42.30;1.00;;;;;;2259982;61;1110;-85
2022/07/25 07:42:24;11515.00;0.04;20.57;0.00;0.00;0.62;;;;;42.10;1.00;;;;;;2259733;61;1365;-84
2022/07/25 07:44:51;172893.00;0.58;299.25;42472.00;0.14;74.17;;;;;42.20;1.00;;;;;;2260652;61;1058;-85
2022/07/25 07:47:20;493725.00;1.65;851.02;185482.00;0.62;320.93;;;;;42.60;1.00;;;;;;2260576;61;1009;-85
2022/07/25 07:49:47;168892.00;0.56;292.36;54638.00;0.18;95.21;;;;;42.70;1.00;;;;;;2260623;61;1087;-84
2022/07/25 07:52:14;243254.00;0.81;420.35;44154.00;0.15;77.07;;;;;42.80;1.00;;;;;;2260620;61;1998;-85
2022/07/25 07:57:26;0.00;0.00;0.62;0.00;0.00;0.62;;;;;42.90;1.00;;;;;;2260664;61;726;-85
2022/07/25 07:59:53;241038.00;0.80;416.54;44330.00;0.15;77.38;;;;;43.60;1.00;;;;;;2260559;61;1074;-84
2022/07/25 08:02:20;192423.00;0.64;332.88;48756.00;0.16;85.03;;;;;43.20;1.00;;;;;;2260477;61;1515;-84
2022/07/25 08:04:47;203432.00;0.68;351.83;40570.00;0.14;70.87;;;;;43.40;1.00;;;;;;2260180;61;1062;-84
2022/07/25 08:07:14;219561.00;0.73;379.59;50039.00;0.17;87.25;;;;;43.70;1.00;;;;;;2260495;61;1144;-84
2022/07/25 08:09:42;170703.00;0.57;295.48;53214.00;0.18;92.74;;;;;43.50;1.00;;;;;;2260528;61;1134;-84
2022/07/25 08:12:09;186830.00;0.62;323.25;43574.00;0.15;76.07;;;;;43.90;1.00;;;;;;2260457;61;2009;-84
2022/07/25 08:14:36;161391.00;0.54;279.44;37122.00;0.12;64.91;;;;;44.60;1.00;;;;;;2260568;61;1210;-83
2022/07/25 08:17:03;193223.00;0.64;334.26;25296.00;0.08;44.44;;;;;44.50;1.00;;;;;;2260520;61;1101;-84
2022/07/25 08:19:30;164331.00;0.55;284.50;43653.00;0.15;76.21;;;;;44.00;1.00;;;;;;2260514;61;1055;-84
2022/07/25 08:21:56;166636.00;0.56;288.47;47998.00;0.16;83.72;;;;;43.80;1.00;;;;;;2260457;61;1308;-84
2022/07/25 08:24:23;338981.00;1.13;584.92;105178.00;0.35;182.51;;;;;44.10;1.00;;;;;;2260433;61;1597;-85
2022/07/25 08:26:51;176624.00;0.59;305.68;44325.00;0.15;77.37;;;;;43.60;1.00;;;;;;2260492;61;1115;-83
2022/07/25 08:29:18;161906.00;0.54;280.32;40978.00;0.14;71.58;;;;;43.60;1.00;;;;;;2260363;61;1110;-84
2022/07/25 08:31:45;279521.00;0.93;482.71;47418.00;0.16;82.72;;;;;43.20;1.00;;;;;;2260283;61;1994;-83
2022/07/25 08:34:12;224087.00;0.75;387.38;54757.00;0.18;95.41;;;;;43.50;1.00;;;;;;2260405;61;1245;-84
2022/07/25 08:36:39;227479.00;0.76;393.21;46772.00;0.16;81.60;;;;;43.60;1.00;;;;;;2260295;61;1084;-83
2022/07/25 08:39:06;166690.00;0.56;288.56;49521.00;0.17;86.36;;;;;43.40;1.00;;;;;;2260307;61;1068;-84
2022/07/25 08:41:33;166269.00;0.55;287.84;38646.00;0.13;67.55;;;;;43.40;1.00;;;;;;2260450;61;1090;-84
2022/07/25 08:44:03;209558.00;0.70;362.37;57818.00;0.19;100.70;;;;;43.40;1.00;;;;;;2260178;61;1303;-81
2022/07/25 08:46:30;173571.00;0.58;300.42;40183.00;0.13;70.21;;;;;43.00;1.00;;;;;;2259021;61;1123;-82
2022/07/25 08:48:58;0.00;0.00;0.62;0.00;0.00;0.62;;;;;42.90;1.00;;;;;;2260167;61;1140;-84
2022/07/25 08:51:25;256750.00;0.86;443.56;107959.00;0.36;187.31;;;;;42.90;1.00;;;;;;2259248;61;1101;-83
2022/07/25 08:53:53;0.00;0.00;0.62;0.00;0.00;0.62;;;;;42.00;1.00;;;;;;2260114;61;2036;-83
2022/07/25 08:56:19;192198.00;0.64;332.49;31772.00;0.11;55.65;;;;;42.10;1.00;;;;;;2260391;61;1035;-83
2022/07/25 08:58:46;0.00;0.00;0.62;0.00;0.00;0.62;;;;;42.50;1.00;;;;;;2260329;61;1066;-83
2022/07/25 09:01:15;0.00;0.00;0.62;0.00;0.00;0.62;;;;;42.30;1.00;;;;;;2260174;61;993;-83
2022/07/25 09:03:42;0.00;0.00;0.62;0.00;0.00;0.62;;;;;42.20;1.00;;;;;;2260021;61;1299;-83
2022/07/25 09:06:17;14700.00;0.05;26.09;0.00;0.00;0.62;;;;;41.80;1.00;;;;;;2260068;61;1012;-84
2022/07/25 09:08:52;164580.00;0.55;284.93;50856.00;0.17;88.67;;;;;41.90;1.00;;;;;;2259960;61;1113;-84
2022/07/25 09:11:30;179176.00;0.60;310.07;51947.00;0.17;90.55;;;;;41.50;1.00;;;;;;2260382;61;1097;-85
2022/07/25 09:14:01;163661.00;0.55;283.35;33297.00;0.11;58.29;;;;;41.90;1.00;;;;;;2260318;61;2018;-83
2022/07/25 09:16:35;195797.00;0.65;338.69;50935.00;0.17;88.80;;;;;42.20;1.00;;;;;;2260392;61;1069;-83
2022/07/25 09:19:10;199404.00;0.66;344.90;60058.00;0.20;104.58;;;;;42.10;1.00;;;;;;2260147;61;1113;-83
2022/07/25 09:21:38;335143.00;1.12;578.33;43990.00;0.15;76.79;;;;;42.10;1.00;;;;;;2260345;61;1111;-82
2022/07/25 09:24:13;281356.00;0.94;485.87;45170.00;0.15;78.83;;;;;42.20;1.00;;;;;;2259802;61;1563;-82
2022/07/25 09:26:50;0.00;0.00;0.62;0.00;0.00;0.62;;;;;41.70;1.00;;;;;;2260154;61;1103;-84
2022/07/25 09:29:20;18645.00;0.06;32.92;0.00;0.00;0.62;;;;;41.10;1.00;;;;;;2260043;61;1153;-82
2022/07/25 09:31:48;0.00;0.00;0.62;0.00;0.00;0.62;;;;;40.30;1.00;;;;;;2259628;61;1377;-83
2022/07/25 09:34:28;0.00;0.00;0.62;0.00;0.00;0.62;;;;;39.80;1.00;;;;;;2259234;61;2032;-84
2022/07/25 09:36:56;0.00;0.00;0.62;0.00;0.00;0.62;;;;;39.50;1.00;;;;;;2258807;61;1121;-84
2022/07/25 09:39:37;39217.00;0.13;68.53;0.00;0.00;0.62;;;;;39.30;1.00;;;;;;2260223;61;1093;-84
2022/07/25 09:42:15;43953.00;0.15;76.73;0.00;0.00;0.62;;;;;39.10;1.00;;;;;;2260231;61;1414;-84
2022/07/25 09:44:42;0.00;0.00;0.62;0.00;0.00;0.62;;;;;39.50;1.00;;;;;;2258511;61;1044;-85
2022/07/25 09:47:15;57391.00;0.19;99.97;0.00;0.00;0.62;;;;;39.50;1.00;;;;;;2259976;61;1181;-85
2022/07/25 09:49:44;55925.00;0.19;97.43;0.00;0.00;0.62;;;;;39.50;1.00;;;;;;2258121;61;1130;-84
2022/07/25 09:52:12;0.00;0.00;0.62;0.00;0.00;0.62;;;;;39.30;1.00;;;;;;2259272;61;1922;-84